sensor_id;sensor_type;location;lat;lon;timestamp;pressure;altitude;pressure_sealevel;temperature;humidity
10464;BME280;5279;42.048;24.638;2023-06-10T00:02:15;96951.78;;;17.84;100.00
10464;BME280;5279;42.048;24.638;2023-06-10T00:04:43;96946.03;;;17.87;100.00
10464;BME280;5279;42.048;24.638;2023-06-10T00:07:10;96948.91;;;17.92;100.00
10464;BME280;5279;42.048;24.638;2023-06-10T00:09:38;96950.75;;;17.98;100.00
10464;BME280;5279;42.048;24.638;2023-06-10T00:12:06;96953.44;;;18.11;97.96
10464;BME280;5279;42.048;24.638;2023-06-10T00:14:36;96957.13;;;18.23;96.90
10464;BME280;5279;42.048;24.638;2023-06-10T00:17:04;96944.94;;;18.40;96.17
10464;BME280;5279;42.048;24.638;2023-06-10T00:19:35;96945.13;;;18.45;94.69
10464;BME280;5279;42.048;24.638;2023-06-10T00:22:02;96936.03;;;18.46;95.15
10464;BME280;5279;42.048;24.638;2023-06-10T00:24:30;96940.34;;;18.61;90.46
10464;BME280;5279;42.048;24.638;2023-06-10T00:26:59;96933.97;;;18.62;90.43
10464;BME280;5279;42.048;24.638;2023-06-10T00:29:26;96933.72;;;18.70;92.44
10464;BME280;5279;42.048;24.638;2023-06-10T00:31:53;96942.59;;;18.77;92.25
10464;BME280;5279;42.048;24.638;2023-06-10T00:34:23;96939.88;;;18.83;90.75
10464;BME280;5279;42.048;24.638;2023-06-10T00:36:50;96934.72;;;18.82;94.12
10464;BME280;5279;42.048;24.638;2023-06-10T00:39:17;96938.25;;;18.76;89.82
10464;BME280;5279;42.048;24.638;2023-06-10T00:41:44;96933.94;;;18.75;91.78
10464;BME280;5279;42.048;24.638;2023-06-10T00:44:12;96936.84;;;18.67;92.68
10464;BME280;5279;42.048;24.638;2023-06-10T00:46:39;96939.34;;;18.62;93.78
10464;BME280;5279;42.048;24.638;2023-06-10T00:49:07;96949.47;;;18.60;94.98
10464;BME280;5279;42.048;24.638;2023-06-10T00:51:34;96943.91;;;18.41;96.64
10464;BME280;5279;42.048;24.638;2023-06-10T00:54:02;96940.59;;;18.39;95.73
10464;BME280;5279;42.048;24.638;2023-06-10T00:56:29;96931.75;;;18.32;98.48
10464;BME280;5279;42.048;24.638;2023-06-10T00:58:56;96938.97;;;18.25;98.81
10464;BME280;5279;42.048;24.638;2023-06-10T01:01:25;96936.91;;;18.27;97.79
10464;BME280;5279;42.048;24.638;2023-06-10T01:03:52;96942.25;;;18.27;91.45
10464;BME280;5279;42.048;24.638;2023-06-10T01:06:26;96934.00;;;18.35;92.64
10464;BME280;5279;42.048;24.638;2023-06-10T01:09:02;96937.72;;;18.34;95.40
10464;BME280;5279;42.048;24.638;2023-06-10T01:11:36;96936.47;;;18.30;96.44
10464;BME280;5279;42.048;24.638;2023-06-10T01:14:07;96935.28;;;18.26;97.53
10464;BME280;5279;42.048;24.638;2023-06-10T01:16:38;96946.38;;;18.36;97.33
10464;BME280;5279;42.048;24.638;2023-06-10T01:19:06;96950.72;;;18.31;97.69
10464;BME280;5279;42.048;24.638;2023-06-10T01:21:37;96949.28;;;18.22;100.00
10464;BME280;5279;42.048;24.638;2023-06-10T01:24:06;96949.72;;;18.12;100.00
10464;BME280;5279;42.048;24.638;2023-06-10T01:26:34;96942.50;;;18.06;100.00
10464;BME280;5279;42.048;24.638;2023-06-10T01:29:07;96949.31;;;17.89;100.00
10464;BME280;5279;42.048;24.638;2023-06-10T01:31:42;96956.94;;;17.92;100.00
10464;BME280;5279;42.048;24.638;2023-06-10T01:34:14;96953.84;;;17.82;100.00
10464;BME280;5279;42.048;24.638;2023-06-10T01:36:46;96948.91;;;17.66;100.00
10464;BME280;5279;42.048;24.638;2023-06-10T01:39:14;96945.56;;;17.64;100.00
10464;BME280;5279;42.048;24.638;2023-06-10T01:41:42;96950.13;;;17.57;100.00
10464;BME280;5279;42.048;24.638;2023-06-10T01:44:10;96949.72;;;17.60;100.00
10464;BME280;5279;42.048;24.638;2023-06-10T01:46:37;96945.78;;;17.56;100.00
10464;BME280;5279;42.048;24.638;2023-06-10T01:49:04;96947.25;;;17.65;100.00
10464;BME280;5279;42.048;24.638;2023-06-10T01:51:32;96944.34;;;17.66;100.00
10464;BME280;5279;42.048;24.638;2023-06-10T01:54:01;96943.53;;;17.66;100.00
10464;BME280;5279;42.048;24.638;2023-06-10T01:56:28;96948.50;;;17.69;100.00
10464;BME280;5279;42.048;24.638;2023-06-10T01:58:56;96954.25;;;17.66;100.00
10464;BME280;5279;42.048;24.638;2023-06-10T02:01:25;96962.69;;;17.56;100.00
10464;BME280;5279;42.048;24.638;2023-06-10T02:03:52;96950.91;;;17.51;100.00
10464;BME280;5279;42.048;24.638;2023-06-10T02:06:19;96949.22;;;17.43;100.00
10464;BME280;5279;42.048;24.638;2023-06-10T02:08:46;96957.91;;;17.38;100.00
10464;BME280;5279;42.048;24.638;2023-06-10T02:11:15;96953.97;;;17.34;100.00
10464;BME280;5279;42.048;24.638;2023-06-10T02:13:42;96964.47;;;17.42;100.00
10464;BME280;5279;42.048;24.638;2023-06-10T02:16:10;96961.59;;;17.37;100.00
10464;BME280;5279;42.048;24.638;2023-06-10T02:18:38;96962.59;;;17.23;100.00
10464;BME280;5279;42.048;24.638;2023-06-10T02:21:06;96966.69;;;17.19;100.00
10464;BME280;5279;42.048;24.638;2023-06-10T02:23:33;96954.72;;;17.15;100.00
10464;BME280;5279;42.048;24.638;2023-06-10T02:26:00;96955.34;;;17.24;100.00
10464;BME280;5279;42.048;24.638;2023-06-10T02:28:29;96956.63;;;17.28;100.00
10464;BME280;5279;42.048;24.638;2023-06-10T02:30:56;96958.91;;;17.37;100.00
10464;BME280;5279;42.048;24.638;2023-06-10T02:33:24;96946.53;;;17.36;100.00
10464;BME280;5279;42.048;24.638;2023-06-10T02:35:52;96956.25;;;17.44;100.00
10464;BME280;5279;42.048;24.638;2023-06-10T02:38:19;96952.13;;;17.35;100.00
10464;BME280;5279;42.048;24.638;2023-06-10T02:40:47;96955.06;;;17.60;100.00
10464;BME280;5279;42.048;24.638;2023-06-10T02:43:14;96957.97;;;17.65;100.00
10464;BME280;5279;42.048;24.638;2023-06-10T02:45:42;96964.56;;;17.69;100.00
10464;BME280;5279;42.048;24.638;2023-06-10T02:48:10;96959.63;;;17.66;100.00
10464;BME280;5279;42.048;24.638;2023-06-10T02:50:38;96959.59;;;17.72;100.00
10464;BME280;5279;42.048;24.638;2023-06-10T02:53:05;96960.44;;;17.79;100.00
10464;BME280;5279;42.048;24.638;2023-06-10T02:55:32;96958.19;;;17.89;100.00
10464;BME280;5279;42.048;24.638;2023-06-10T02:58:01;96963.31;;;17.91;100.00
10464;BME280;5279;42.048;24.638;2023-06-10T03:00:28;96968.09;;;18.02;100.00
10464;BME280;5279;42.048;24.638;2023-06-10T03:02:56;96963.53;;;18.16;100.00
10464;BME280;5279;42.048;24.638;2023-06-10T03:05:23;96960.84;;;18.16;99.40
10464;BME280;5279;42.048;24.638;2023-06-10T03:07:50;96958.78;;;18.24;100.00
10464;BME280;5279;42.048;24.638;2023-06-10T03:10:20;96960.00;;;18.28;100.00
10464;BME280;5279;42.048;24.638;2023-06-10T03:12:47;96968.25;;;18.33;93.91
10464;BME280;5279;42.048;24.638;2023-06-10T03:32:29;96974.31;;;19.50;86.93
10464;BME280;5279;42.048;24.638;2023-06-10T03:34:58;96979.06;;;19.48;87.14
10464;BME280;5279;42.048;24.638;2023-06-10T03:37:25;96967.91;;;19.51;89.59
10464;BME280;5279;42.048;24.638;2023-06-10T03:39:53;96976.81;;;19.39;91.62
10464;BME280;5279;42.048;24.638;2023-06-10T03:42:20;96973.75;;;19.35;92.66
10464;BME280;5279;42.048;24.638;2023-06-10T03:44:47;96973.09;;;19.33;94.43
10464;BME280;5279;42.048;24.638;2023-06-10T03:47:15;96978.31;;;19.28;94.89
10464;BME280;5279;42.048;24.638;2023-06-10T03:49:45;96975.44;;;19.23;99.35
10464;BME280;5279;42.048;24.638;2023-06-10T03:52:12;96977.28;;;19.29;100.00
10464;BME280;5279;42.048;24.638;2023-06-10T03:54:39;96981.22;;;19.27;100.00
10464;BME280;5279;42.048;24.638;2023-06-10T03:57:06;96966.00;;;19.14;100.00
10464;BME280;5279;42.048;24.638;2023-06-10T03:59:34;96971.28;;;19.27;100.00
10464;BME280;5279;42.048;24.638;2023-06-10T04:02:01;96972.50;;;19.31;100.00
10464;BME280;5279;42.048;24.638;2023-06-10T04:04:30;96975.00;;;19.39;100.00
10464;BME280;5279;42.048;24.638;2023-06-10T04:06:59;96974.75;;;19.34;100.00
10464;BME280;5279;42.048;24.638;2023-06-10T04:09:27;96979.50;;;19.45;100.00
10464;BME280;5279;42.048;24.638;2023-06-10T04:11:54;96980.69;;;19.49;100.00
10464;BME280;5279;42.048;24.638;2023-06-10T04:14:21;96984.78;;;19.58;100.00
10464;BME280;5279;42.048;24.638;2023-06-10T04:16:49;96978.53;;;19.64;100.00
10464;BME280;5279;42.048;24.638;2023-06-10T04:19:17;96977.28;;;19.67;100.00
10464;BME280;5279;42.048;24.638;2023-06-10T04:21:44;96968.41;;;19.67;100.00
10464;BME280;5279;42.048;24.638;2023-06-10T04:24:13;96979.72;;;19.75;100.00
10464;BME280;5279;42.048;24.638;2023-06-10T04:26:41;96979.69;;;19.82;100.00
10464;BME280;5279;42.048;24.638;2023-06-10T04:29:08;96980.06;;;19.85;100.00
10464;BME280;5279;42.048;24.638;2023-06-10T04:31:36;96969.94;;;19.87;100.00
10464;BME280;5279;42.048;24.638;2023-06-10T04:34:03;96978.53;;;19.96;100.00
10464;BME280;5279;42.048;24.638;2023-06-10T04:36:30;96969.66;;;19.95;100.00
10464;BME280;5279;42.048;24.638;2023-06-10T04:38:57;96965.00;;;20.09;100.00
10464;BME280;5279;42.048;24.638;2023-06-10T04:41:26;96968.81;;;20.19;100.00
10464;BME280;5279;42.048;24.638;2023-06-10T04:43:53;96961.97;;;20.24;100.00
10464;BME280;5279;42.048;24.638;2023-06-10T04:46:20;96969.38;;;20.28;100.00
10464;BME280;5279;42.048;24.638;2023-06-10T04:48:48;96968.63;;;20.21;96.82
10464;BME280;5279;42.048;24.638;2023-06-10T04:51:16;96973.75;;;20.23;100.00
10464;BME280;5279;42.048;24.638;2023-06-10T04:53:43;96964.19;;;20.33;100.00
10464;BME280;5279;42.048;24.638;2023-06-10T04:56:13;96962.13;;;20.53;99.72
10464;BME280;5279;42.048;24.638;2023-06-10T04:58:43;96963.94;;;20.78;99.71
10464;BME280;5279;42.048;24.638;2023-06-10T05:01:10;96962.91;;;20.97;95.61
10464;BME280;5279;42.048;24.638;2023-06-10T05:03:38;96957.06;;;21.18;93.39
10464;BME280;5279;42.048;24.638;2023-06-10T05:06:05;96968.25;;;21.33;85.66
10464;BME280;5279;42.048;24.638;2023-06-10T05:08:31;96967.28;;;21.46;85.44
10464;BME280;5279;42.048;24.638;2023-06-10T05:10:58;96975.44;;;21.69;87.48
10464;BME280;5279;42.048;24.638;2023-06-10T05:13:25;96967.50;;;21.86;87.37
10464;BME280;5279;42.048;24.638;2023-06-10T05:15:53;96966.75;;;21.97;89.99
10464;BME280;5279;42.048;24.638;2023-06-10T05:18:20;96969.25;;;22.10;86.57
10464;BME280;5279;42.048;24.638;2023-06-10T05:20:48;96965.16;;;22.19;82.43
10464;BME280;5279;42.048;24.638;2023-06-10T05:23:15;96962.91;;;22.27;84.03
10464;BME280;5279;42.048;24.638;2023-06-10T05:25:42;96967.75;;;22.37;83.72
10464;BME280;5279;42.048;24.638;2023-06-10T05:28:09;96964.44;;;22.47;82.71
10464;BME280;5279;42.048;24.638;2023-06-10T05:30:36;96966.78;;;22.55;83.06
10464;BME280;5279;42.048;24.638;2023-06-10T05:33:14;96963.66;;;22.69;83.63
10464;BME280;5279;42.048;24.638;2023-06-10T05:35:40;96965.97;;;22.77;84.92
10464;BME280;5279;42.048;24.638;2023-06-10T05:38:10;96967.38;;;22.92;84.80
10464;BME280;5279;42.048;24.638;2023-06-10T05:40:37;96968.19;;;22.92;86.81
10464;BME280;5279;42.048;24.638;2023-06-10T05:43:04;96975.09;;;23.00;86.25
10464;BME280;5279;42.048;24.638;2023-06-10T05:45:31;96962.44;;;22.89;87.33
10464;BME280;5279;42.048;24.638;2023-06-10T05:48:00;96971.34;;;23.01;86.61
10464;BME280;5279;42.048;24.638;2023-06-10T05:50:29;96974.63;;;23.03;86.80
10464;BME280;5279;42.048;24.638;2023-06-10T05:52:56;96974.06;;;23.01;87.53
10464;BME280;5279;42.048;24.638;2023-06-10T05:55:25;96977.72;;;22.95;87.11
10464;BME280;5279;42.048;24.638;2023-06-10T05:57:58;96983.84;;;22.78;88.15
10464;BME280;5279;42.048;24.638;2023-06-10T06:00:26;96972.44;;;22.65;88.96
10464;BME280;5279;42.048;24.638;2023-06-10T06:02:54;96985.72;;;22.66;90.95
10464;BME280;5279;42.048;24.638;2023-06-10T06:05:23;96983.59;;;22.68;91.16
10464;BME280;5279;42.048;24.638;2023-06-10T06:07:52;96987.47;;;22.84;92.75
10464;BME280;5279;42.048;24.638;2023-06-10T06:10:19;96983.31;;;23.05;89.58
10464;BME280;5279;42.048;24.638;2023-06-10T06:12:46;96990.31;;;23.29;88.35
10464;BME280;5279;42.048;24.638;2023-06-10T06:15:13;96990.75;;;23.49;82.81
10464;BME280;5279;42.048;24.638;2023-06-10T06:17:40;96991.34;;;23.79;85.01
10464;BME280;5279;42.048;24.638;2023-06-10T06:20:12;96987.09;;;24.00;80.31
10464;BME280;5279;42.048;24.638;2023-06-10T06:22:39;96978.72;;;24.02;79.29
10464;BME280;5279;42.048;24.638;2023-06-10T06:25:08;96988.56;;;24.08;71.39
10464;BME280;5279;42.048;24.638;2023-06-10T06:27:35;96980.72;;;24.23;73.76
10464;BME280;5279;42.048;24.638;2023-06-10T06:30:02;96980.47;;;24.41;70.60
10464;BME280;5279;42.048;24.638;2023-06-10T06:32:30;96977.09;;;24.67;70.12
10464;BME280;5279;42.048;24.638;2023-06-10T06:34:57;96984.75;;;24.70;69.94
10464;BME280;5279;42.048;24.638;2023-06-10T06:37:25;96970.75;;;24.78;67.32
10464;BME280;5279;42.048;24.638;2023-06-10T06:39:52;96968.22;;;24.88;68.02
10464;BME280;5279;42.048;24.638;2023-06-10T06:42:21;96974.47;;;24.89;64.89
10464;BME280;5279;42.048;24.638;2023-06-10T06:44:48;96978.06;;;24.78;62.93
10464;BME280;5279;42.048;24.638;2023-06-10T06:47:15;96970.19;;;24.76;60.72
10464;BME280;5279;42.048;24.638;2023-06-10T06:49:45;96973.50;;;24.62;61.86
10464;BME280;5279;42.048;24.638;2023-06-10T06:52:12;96973.91;;;24.70;62.51
10464;BME280;5279;42.048;24.638;2023-06-10T06:54:40;96969.69;;;24.79;62.28
10464;BME280;5279;42.048;24.638;2023-06-10T06:57:07;96965.72;;;25.04;63.89
10464;BME280;5279;42.048;24.638;2023-06-10T06:59:38;96965.59;;;25.37;61.47
10464;BME280;5279;42.048;24.638;2023-06-10T07:02:05;96961.56;;;25.61;58.02
10464;BME280;5279;42.048;24.638;2023-06-10T07:04:36;96953.41;;;25.61;60.74
10464;BME280;5279;42.048;24.638;2023-06-10T07:07:07;96958.16;;;25.49;59.83
10464;BME280;5279;42.048;24.638;2023-06-10T07:09:37;96962.59;;;25.38;60.83
10464;BME280;5279;42.048;24.638;2023-06-10T07:12:05;96965.97;;;25.24;58.16
10464;BME280;5279;42.048;24.638;2023-06-10T07:14:39;96961.88;;;25.21;57.28
10464;BME280;5279;42.048;24.638;2023-06-10T07:17:07;96936.09;;;25.19;59.35
10464;BME280;5279;42.048;24.638;2023-06-10T07:19:34;96954.75;;;25.15;58.36
10464;BME280;5279;42.048;24.638;2023-06-10T07:22:01;96957.31;;;25.27;59.53
10464;BME280;5279;42.048;24.638;2023-06-10T07:24:29;96948.53;;;25.63;63.13
10464;BME280;5279;42.048;24.638;2023-06-10T07:26:57;96941.34;;;26.05;59.87
10464;BME280;5279;42.048;24.638;2023-06-10T07:29:24;96931.94;;;26.50;57.08
10464;BME280;5279;42.048;24.638;2023-06-10T07:31:54;96931.09;;;26.86;57.68
10464;BME280;5279;42.048;24.638;2023-06-10T07:34:20;96947.50;;;27.01;55.78
10464;BME280;5279;42.048;24.638;2023-06-10T07:36:47;96942.81;;;27.44;55.51
10464;BME280;5279;42.048;24.638;2023-06-10T07:39:14;96954.84;;;27.68;52.32
10464;BME280;5279;42.048;24.638;2023-06-10T07:41:42;96947.81;;;27.92;51.57
10464;BME280;5279;42.048;24.638;2023-06-10T07:44:09;96941.81;;;27.90;49.05
10464;BME280;5279;42.048;24.638;2023-06-10T07:46:36;96944.53;;;27.90;50.00
10464;BME280;5279;42.048;24.638;2023-06-10T07:49:04;96940.44;;;27.88;48.47
10464;BME280;5279;42.048;24.638;2023-06-10T07:51:31;96948.88;;;27.86;46.04
10464;BME280;5279;42.048;24.638;2023-06-10T07:54:00;96940.72;;;27.91;50.36
10464;BME280;5279;42.048;24.638;2023-06-10T07:56:30;96947.88;;;28.17;50.53
10464;BME280;5279;42.048;24.638;2023-06-10T07:58:57;96949.47;;;28.29;47.87
10464;BME280;5279;42.048;24.638;2023-06-10T08:01:24;96951.63;;;27.96;46.51
10464;BME280;5279;42.048;24.638;2023-06-10T08:03:51;96947.31;;;28.10;49.17
10464;BME280;5279;42.048;24.638;2023-06-10T08:06:19;96942.94;;;28.25;48.53
10464;BME280;5279;42.048;24.638;2023-06-10T08:08:46;96944.00;;;28.49;47.01
10464;BME280;5279;42.048;24.638;2023-06-10T08:11:13;96947.28;;;28.56;48.21
10464;BME280;5279;42.048;24.638;2023-06-10T08:13:42;96950.00;;;28.61;46.36
10464;BME280;5279;42.048;24.638;2023-06-10T08:16:08;96946.75;;;28.74;46.50
10464;BME280;5279;42.048;24.638;2023-06-10T08:18:35;96942.88;;;28.85;46.56
10464;BME280;5279;42.048;24.638;2023-06-10T08:21:02;96928.88;;;29.17;48.92
10464;BME280;5279;42.048;24.638;2023-06-10T08:23:30;96939.75;;;29.32;47.04
10464;BME280;5279;42.048;24.638;2023-06-10T08:25:57;96943.75;;;29.50;44.53
10464;BME280;5279;42.048;24.638;2023-06-10T08:28:24;96935.53;;;29.55;44.33
10464;BME280;5279;42.048;24.638;2023-06-10T08:30:51;96939.22;;;29.30;44.68
10464;BME280;5279;42.048;24.638;2023-06-10T08:33:18;96939.47;;;29.34;44.88
10464;BME280;5279;42.048;24.638;2023-06-10T08:35:45;96936.22;;;29.32;45.30
10464;BME280;5279;42.048;24.638;2023-06-10T08:38:12;96925.69;;;29.59;46.14
10464;BME280;5279;42.048;24.638;2023-06-10T08:40:44;96935.47;;;29.65;46.15
10464;BME280;5279;42.048;24.638;2023-06-10T08:43:17;96935.47;;;29.65;45.28
10464;BME280;5279;42.048;24.638;2023-06-10T08:45:49;96936.00;;;29.67;45.35
10464;BME280;5279;42.048;24.638;2023-06-10T08:48:17;96923.41;;;29.76;43.39
10464;BME280;5279;42.048;24.638;2023-06-10T08:50:46;96934.28;;;29.91;45.00
10464;BME280;5279;42.048;24.638;2023-06-10T08:53:18;96925.56;;;29.84;43.81
10464;BME280;5279;42.048;24.638;2023-06-10T08:55:51;96928.81;;;29.91;44.80
10464;BME280;5279;42.048;24.638;2023-06-10T08:58:21;96926.19;;;30.10;45.92
10464;BME280;5279;42.048;24.638;2023-06-10T09:00:50;96920.63;;;29.91;46.60
10464;BME280;5279;42.048;24.638;2023-06-10T09:03:18;96934.88;;;29.78;45.10
10464;BME280;5279;42.048;24.638;2023-06-10T09:05:48;96921.88;;;29.60;45.14
10464;BME280;5279;42.048;24.638;2023-06-10T09:08:15;96917.44;;;29.10;46.72
10464;BME280;5279;42.048;24.638;2023-06-10T09:10:42;96921.63;;;28.87;46.41
10464;BME280;5279;42.048;24.638;2023-06-10T09:13:12;96926.00;;;28.58;47.11
10464;BME280;5279;42.048;24.638;2023-06-10T09:15:41;96926.88;;;28.23;48.58
10464;BME280;5279;42.048;24.638;2023-06-10T09:18:08;96913.75;;;28.00;47.76
10464;BME280;5279;42.048;24.638;2023-06-10T09:20:35;96926.03;;;27.87;46.54
10464;BME280;5279;42.048;24.638;2023-06-10T09:23:02;96927.09;;;27.91;47.38
10464;BME280;5279;42.048;24.638;2023-06-10T09:25:35;96921.72;;;28.11;48.97
10464;BME280;5279;42.048;24.638;2023-06-10T09:28:13;96914.59;;;28.41;45.00
10464;BME280;5279;42.048;24.638;2023-06-10T09:30:40;96914.06;;;28.39;46.11
10464;BME280;5279;42.048;24.638;2023-06-10T09:33:11;96921.69;;;28.32;47.48
10464;BME280;5279;42.048;24.638;2023-06-10T09:35:45;96917.88;;;28.07;47.47
10464;BME280;5279;42.048;24.638;2023-06-10T09:38:14;96928.47;;;27.99;47.62
10464;BME280;5279;42.048;24.638;2023-06-10T09:40:48;96924.38;;;27.81;46.58
10464;BME280;5279;42.048;24.638;2023-06-10T09:43:17;96925.44;;;27.70;47.93
10464;BME280;5279;42.048;24.638;2023-06-10T09:45:47;96927.03;;;27.61;49.07
10464;BME280;5279;42.048;24.638;2023-06-10T09:48:15;96922.06;;;27.38;48.78
10464;BME280;5279;42.048;24.638;2023-06-10T09:50:42;96914.94;;;27.17;49.71
10464;BME280;5279;42.048;24.638;2023-06-10T09:53:09;96921.72;;;27.24;48.55
10464;BME280;5279;42.048;24.638;2023-06-10T09:55:37;96919.31;;;27.28;51.10
10464;BME280;5279;42.048;24.638;2023-06-10T09:58:04;96920.13;;;27.23;47.42
10464;BME280;5279;42.048;24.638;2023-06-10T10:00:36;96917.69;;;27.27;48.05
10464;BME280;5279;42.048;24.638;2023-06-10T10:03:06;96918.81;;;27.36;48.91
10464;BME280;5279;42.048;24.638;2023-06-10T10:05:33;96918.28;;;27.39;49.60
10464;BME280;5279;42.048;24.638;2023-06-10T10:08:00;96917.97;;;27.35;49.44
10464;BME280;5279;42.048;24.638;2023-06-10T10:10:30;96910.59;;;27.21;49.78
10464;BME280;5279;42.048;24.638;2023-06-10T10:13:00;96916.56;;;27.18;49.83
10464;BME280;5279;42.048;24.638;2023-06-10T10:15:29;96913.84;;;27.18;49.62
10464;BME280;5279;42.048;24.638;2023-06-10T10:18:04;96910.00;;;27.13;50.97
10464;BME280;5279;42.048;24.638;2023-06-10T10:20:33;96917.06;;;27.04;51.55
10464;BME280;5279;42.048;24.638;2023-06-10T10:23:03;96918.63;;;26.95;48.26
10464;BME280;5279;42.048;24.638;2023-06-10T10:25:34;96916.44;;;26.92;49.73
10464;BME280;5279;42.048;24.638;2023-06-10T10:28:07;96917.53;;;26.91;50.75
10464;BME280;5279;42.048;24.638;2023-06-10T10:30:39;96911.44;;;26.74;51.46
10464;BME280;5279;42.048;24.638;2023-06-10T10:33:13;96910.09;;;26.77;50.95
10464;BME280;5279;42.048;24.638;2023-06-10T10:35:46;96910.34;;;26.75;53.96
10464;BME280;5279;42.048;24.638;2023-06-10T10:38:13;96909.81;;;26.78;54.35
10464;BME280;5279;42.048;24.638;2023-06-10T10:40:44;96906.25;;;26.73;54.47
10464;BME280;5279;42.048;24.638;2023-06-10T10:43:12;96907.06;;;26.68;53.94
10464;BME280;5279;42.048;24.638;2023-06-10T10:45:40;96902.16;;;26.65;53.02
10464;BME280;5279;42.048;24.638;2023-06-10T10:48:09;96906.69;;;26.54;58.15
10464;BME280;5279;42.048;24.638;2023-06-10T10:50:39;96915.03;;;26.38;60.34
10464;BME280;5279;42.048;24.638;2023-06-10T10:53:06;96905.66;;;26.24;59.39
10464;BME280;5279;42.048;24.638;2023-06-10T10:55:33;96906.34;;;26.09;58.88
10464;BME280;5279;42.048;24.638;2023-06-10T10:58:05;96912.94;;;25.86;57.35
10464;BME280;5279;42.048;24.638;2023-06-10T11:00:33;96911.00;;;25.82;60.38
10464;BME280;5279;42.048;24.638;2023-06-10T11:03:05;96908.97;;;25.67;58.88
10464;BME280;5279;42.048;24.638;2023-06-10T11:05:39;96909.44;;;25.59;61.05
10464;BME280;5279;42.048;24.638;2023-06-10T11:08:07;96902.72;;;25.45;61.46
10464;BME280;5279;42.048;24.638;2023-06-10T11:10:35;96912.22;;;25.42;58.30
10464;BME280;5279;42.048;24.638;2023-06-10T11:13:09;96905.56;;;25.50;59.79
10464;BME280;5279;42.048;24.638;2023-06-10T11:15:39;96900.22;;;25.60;58.78
10464;BME280;5279;42.048;24.638;2023-06-10T11:18:14;96900.41;;;25.80;53.75
10464;BME280;5279;42.048;24.638;2023-06-10T11:20:51;96897.31;;;25.98;53.27
10464;BME280;5279;42.048;24.638;2023-06-10T11:23:38;96891.44;;;26.48;53.20
10464;BME280;5279;42.048;24.638;2023-06-10T11:26:17;96895.25;;;26.99;51.58
10464;BME280;5279;42.048;24.638;2023-06-10T11:29:06;96882.31;;;27.37;51.13
10464;BME280;5279;42.048;24.638;2023-06-10T11:31:42;96891.44;;;27.93;51.53
10464;BME280;5279;42.048;24.638;2023-06-10T11:34:09;96882.44;;;28.28;52.51
10464;BME280;5279;42.048;24.638;2023-06-10T11:36:40;96888.69;;;27.88;55.17
10464;BME280;5279;42.048;24.638;2023-06-10T11:39:08;96879.19;;;28.20;53.08
10464;BME280;5279;42.048;24.638;2023-06-10T11:41:36;96885.19;;;28.23;52.04
10464;BME280;5279;42.048;24.638;2023-06-10T11:44:07;96884.59;;;28.51;51.43
10464;BME280;5279;42.048;24.638;2023-06-10T11:46:34;96876.91;;;28.73;49.86
10464;BME280;5279;42.048;24.638;2023-06-10T11:49:02;96872.56;;;28.62;47.16
10464;BME280;5279;42.048;24.638;2023-06-10T11:51:32;96881.59;;;28.47;47.77
10464;BME280;5279;42.048;24.638;2023-06-10T11:54:00;96872.06;;;28.45;48.00
10464;BME280;5279;42.048;24.638;2023-06-10T11:56:28;96869.91;;;28.37;47.66
10464;BME280;5279;42.048;24.638;2023-06-10T11:58:57;96863.88;;;28.50;46.10
10464;BME280;5279;42.048;24.638;2023-06-10T12:01:25;96863.56;;;28.61;46.52
10464;BME280;5279;42.048;24.638;2023-06-10T12:04:03;96867.63;;;28.79;44.24
10464;BME280;5279;42.048;24.638;2023-06-10T12:06:41;96861.69;;;28.72;46.21
10464;BME280;5279;42.048;24.638;2023-06-10T12:09:15;96864.91;;;28.84;45.26
10464;BME280;5279;42.048;24.638;2023-06-10T12:11:42;96863.78;;;28.90;45.29
10464;BME280;5279;42.048;24.638;2023-06-10T12:14:10;96863.16;;;29.08;45.94
10464;BME280;5279;42.048;24.638;2023-06-10T12:16:37;96854.09;;;28.44;42.72
10464;BME280;5279;42.048;24.638;2023-06-10T12:19:05;96859.03;;;28.16;45.55
10464;BME280;5279;42.048;24.638;2023-06-10T12:21:33;96857.13;;;28.12;44.96
10464;BME280;5279;42.048;24.638;2023-06-10T12:24:08;96852.22;;;28.19;46.40
10464;BME280;5279;42.048;24.638;2023-06-10T12:26:41;96851.66;;;28.22;45.07
10464;BME280;5279;42.048;24.638;2023-06-10T12:29:22;96843.22;;;28.24;45.03
10464;BME280;5279;42.048;24.638;2023-06-10T12:32:00;96834.50;;;28.32;45.16
10464;BME280;5279;42.048;24.638;2023-06-10T12:34:35;96836.94;;;28.38;44.48
10464;BME280;5279;42.048;24.638;2023-06-10T12:37:04;96837.72;;;28.54;43.83
10464;BME280;5279;42.048;24.638;2023-06-10T12:39:32;96832.78;;;28.66;43.23
10464;BME280;5279;42.048;24.638;2023-06-10T12:42:01;96829.59;;;29.08;42.62
10464;BME280;5279;42.048;24.638;2023-06-10T12:44:32;96830.78;;;29.41;43.78
10464;BME280;5279;42.048;24.638;2023-06-10T12:47:00;96815.50;;;29.78;44.33
10464;BME280;5279;42.048;24.638;2023-06-10T12:49:27;96816.59;;;30.11;42.36
10464;BME280;5279;42.048;24.638;2023-06-10T12:51:54;96808.00;;;30.52;42.79
10464;BME280;5279;42.048;24.638;2023-06-10T12:54:21;96809.50;;;30.63;40.33
10464;BME280;5279;42.048;24.638;2023-06-10T12:56:48;96812.31;;;30.58;40.00
10464;BME280;5279;42.048;24.638;2023-06-10T12:59:17;96806.59;;;30.78;41.28
10464;BME280;5279;42.048;24.638;2023-06-10T13:01:50;96809.91;;;30.75;40.76
10464;BME280;5279;42.048;24.638;2023-06-10T13:04:17;96803.97;;;30.68;41.87
10464;BME280;5279;42.048;24.638;2023-06-10T13:06:47;96803.53;;;30.32;39.70
10464;BME280;5279;42.048;24.638;2023-06-10T13:09:14;96807.66;;;30.29;40.10
10464;BME280;5279;42.048;24.638;2023-06-10T13:11:42;96803.50;;;30.08;39.99
10464;BME280;5279;42.048;24.638;2023-06-10T13:14:10;96806.25;;;30.08;40.20
10464;BME280;5279;42.048;24.638;2023-06-10T13:16:38;96809.03;;;30.03;40.33
10464;BME280;5279;42.048;24.638;2023-06-10T13:19:05;96803.22;;;30.10;40.87
10464;BME280;5279;42.048;24.638;2023-06-10T13:21:33;96800.19;;;29.83;41.10
10464;BME280;5279;42.048;24.638;2023-06-10T13:24:00;96794.66;;;29.93;41.34